createdAt,value
2018-08-28T00:01:33.181Z,4.97
2018-08-28T00:04:02.204Z,5.73
2018-08-28T00:06:31.247Z,5.37
2018-08-28T00:09:00.317Z,5.33
2018-08-28T00:11:29.445Z,4.77
2018-08-28T00:13:58.537Z,4.60
2018-08-28T00:16:27.560Z,4.87
2018-08-28T00:18:56.651Z,4.70
2018-08-28T00:21:25.674Z,4.60
2018-08-28T00:23:54.717Z,4.47
2018-08-28T00:26:23.761Z,4.63
2018-08-28T00:28:52.776Z,4.80
2018-08-28T00:31:21.829Z,5.20
2018-08-28T00:33:51.034Z,4.93
2018-08-28T00:36:20.073Z,4.63
2018-08-28T00:38:49.153Z,5.07
2018-08-28T00:41:18.157Z,4.57
2018-08-28T00:43:47.211Z,5.83
2018-08-28T00:46:16.217Z,4.80
2018-08-28T00:48:45.259Z,5.30
2018-08-28T00:51:14.277Z,4.97
2018-08-28T00:53:43.410Z,4.87
2018-08-28T00:56:12.407Z,4.77
2018-08-28T00:58:41.425Z,4.90
2018-08-28T01:01:10.477Z,4.97
2018-08-28T01:03:39.497Z,5.07
2018-08-28T01:06:08.571Z,4.93
2018-08-28T01:08:37.570Z,5.00
2018-08-28T01:11:07.413Z,5.07
2018-08-28T01:13:36.487Z,5.17
2018-08-28T01:16:05.548Z,5.00
2018-08-28T01:18:34.610Z,5.30
2018-08-28T01:21:03.601Z,4.87
2018-08-28T01:23:32.737Z,4.80
2018-08-28T01:26:01.740Z,5.23
2018-08-28T01:28:30.886Z,4.90
2018-08-28T01:30:59.888Z,4.80
2018-08-28T01:33:28.934Z,4.90
2018-08-28T01:35:58.007Z,4.43
2018-08-28T01:38:27.016Z,5.00
2018-08-28T01:40:56.086Z,4.83
2018-08-28T01:43:25.612Z,5.37
2018-08-28T01:45:55.292Z,4.70
2018-08-28T01:48:24.329Z,5.43
2018-08-28T01:50:53.604Z,4.73
2018-08-28T01:53:22.720Z,4.87
2018-08-28T01:55:51.770Z,4.97
2018-08-28T01:58:20.836Z,5.17
2018-08-28T02:00:49.828Z,5.27
2018-08-28T02:03:19.173Z,5.37
2018-08-28T02:05:48.250Z,4.30
2018-08-28T02:08:17.244Z,4.53
2018-08-28T02:10:46.296Z,4.57
2018-08-28T02:13:15.449Z,5.23
2018-08-28T02:15:44.500Z,4.53
2018-08-28T02:18:13.517Z,4.50
2018-08-28T02:20:42.915Z,4.60
2018-08-28T02:23:11.924Z,4.93
2018-08-28T02:25:41.033Z,4.67
2018-08-28T02:28:10.111Z,5.50
2018-08-28T02:30:39.178Z,4.37
2018-08-28T02:33:08.194Z,4.53
2018-08-28T02:35:37.257Z,5.03
2018-08-28T02:38:06.302Z,4.40
2018-08-28T02:40:35.457Z,4.80
2018-08-28T02:43:04.452Z,5.10
2018-08-28T02:45:33.490Z,5.10
2018-08-28T02:48:02.495Z,4.90
2018-08-28T02:50:31.537Z,4.83
2018-08-28T02:53:00.609Z,4.93
2018-08-28T02:55:29.620Z,4.20
2018-08-28T02:57:58.769Z,4.93
2018-08-28T03:00:27.815Z,4.40
2018-08-28T03:02:56.929Z,5.00
2018-08-28T03:05:25.917Z,5.07
2018-08-28T03:07:54.962Z,5.10
2018-08-28T03:10:24.036Z,5.33
2018-08-28T03:12:53.101Z,4.87
2018-08-28T03:15:22.166Z,4.47
2018-08-28T03:17:51.186Z,5.17
2018-08-28T03:20:20.217Z,4.73
2018-08-28T03:22:49.265Z,4.53
2018-08-28T03:25:18.248Z,4.60
2018-08-28T03:27:47.301Z,4.20
2018-08-28T03:30:16.350Z,4.57
2018-08-28T03:32:45.380Z,4.70
2018-08-28T03:35:14.481Z,4.60
2018-08-28T03:37:43.542Z,5.10
2018-08-28T03:40:12.565Z,4.37
2018-08-28T03:42:41.652Z,4.40
2018-08-28T03:45:10.762Z,4.40
2018-08-28T03:47:39.807Z,4.33
2018-08-28T03:50:08.848Z,4.10
2018-08-28T03:52:37.908Z,4.40
2018-08-28T03:55:06.975Z,4.53
2018-08-28T03:57:36.009Z,5.10
2018-08-28T04:00:05.111Z,4.47
2018-08-28T04:02:34.153Z,4.50
2018-08-28T04:05:03.185Z,4.87
2018-08-28T04:07:32.256Z,4.80
2018-08-28T04:10:01.293Z,4.80
2018-08-28T04:12:30.357Z,5.90
2018-08-28T04:14:59.397Z,6.53
2018-08-28T04:17:28.422Z,5.43
2018-08-28T04:19:57.437Z,4.97
2018-08-28T04:22:26.497Z,4.97
2018-08-28T04:24:55.485Z,5.03
2018-08-28T04:27:24.521Z,4.90
2018-08-28T04:29:53.582Z,4.83
2018-08-28T04:32:22.690Z,4.50
2018-08-28T04:34:51.707Z,4.70
2018-08-28T04:37:20.723Z,4.47
2018-08-28T04:39:49.753Z,4.80
2018-08-28T04:42:18.766Z,4.50
2018-08-28T04:44:47.821Z,5.23
2018-08-28T04:47:16.848Z,5.27
2018-08-28T04:49:45.864Z,4.70
2018-08-28T04:52:14.908Z,4.13
2018-08-28T04:54:43.956Z,4.60
2018-08-28T04:57:13.065Z,4.83
2018-08-28T04:59:42.306Z,4.20
2018-08-28T05:02:11.520Z,4.33
2018-08-28T05:04:40.579Z,4.73
2018-08-28T05:07:09.573Z,4.30
2018-08-28T05:09:38.581Z,4.37
2018-08-28T05:12:07.605Z,4.60
2018-08-28T05:14:36.621Z,4.43
2018-08-28T05:17:05.825Z,4.50
2018-08-28T05:19:34.866Z,4.67
2018-08-28T05:22:03.929Z,4.97
2018-08-28T05:24:32.972Z,4.63
2018-08-28T05:27:01.969Z,4.63
2018-08-28T05:29:31.013Z,4.27
2018-08-28T05:32:00.054Z,4.60
2018-08-28T05:34:29.158Z,3.70
2018-08-28T05:36:58.250Z,4.03
2018-08-28T05:39:27.285Z,4.43
2018-08-28T05:41:56.318Z,4.07
2018-08-28T05:44:25.349Z,4.40
2018-08-28T05:46:54.393Z,4.37
2018-08-28T05:49:23.453Z,4.50
2018-08-28T05:51:52.488Z,5.27
2018-08-28T05:54:21.525Z,5.13
2018-08-28T05:56:50.565Z,4.70
2018-08-28T05:59:19.615Z,4.90
2018-08-28T06:01:48.665Z,5.13
2018-08-28T06:04:17.654Z,5.10
2018-08-28T06:06:46.717Z,4.70
2018-08-28T06:09:15.790Z,4.20
2018-08-28T06:11:44.886Z,4.40
2018-08-28T06:14:13.973Z,4.50
2018-08-28T06:16:43.029Z,4.23
2018-08-28T06:19:12.047Z,3.63
2018-08-28T06:21:41.111Z,4.10
2018-08-28T06:24:10.089Z,4.07
2018-08-28T06:26:39.228Z,4.10
2018-08-28T06:29:08.273Z,3.70
2018-08-28T06:31:37.274Z,4.03
2018-08-28T06:34:06.469Z,3.60
2018-08-28T06:36:35.414Z,4.07
2018-08-28T06:39:05.778Z,3.77
2018-08-28T06:41:34.779Z,3.83
2018-08-28T06:44:04.096Z,3.53
2018-08-28T06:46:33.089Z,4.10
2018-08-28T06:49:02.085Z,4.13
2018-08-28T06:51:31.178Z,4.43
2018-08-28T06:54:00.193Z,3.67
2018-08-28T06:56:29.189Z,3.97
2018-08-28T06:58:58.254Z,4.40
2018-08-28T07:01:27.290Z,3.50
2018-08-28T07:03:56.308Z,3.77
2018-08-28T07:06:25.353Z,4.17
2018-08-28T07:08:54.335Z,3.93
2018-08-28T07:11:23.371Z,4.63
2018-08-28T07:13:52.389Z,4.10
2018-08-28T07:16:21.432Z,4.17
2018-08-28T07:18:50.539Z,3.98
2018-08-28T07:21:19.484Z,4.30
2018-08-28T07:23:48.585Z,4.35
2018-08-28T07:26:17.562Z,3.95
2018-08-28T07:28:46.596Z,4.30
2018-08-28T07:31:15.704Z,4.10
2018-08-28T07:33:44.685Z,4.12
2018-08-28T07:36:13.745Z,4.55
2018-08-28T07:38:42.754Z,3.92
2018-08-28T07:41:11.797Z,3.90
2018-08-28T07:43:40.807Z,4.37
2018-08-28T07:46:09.804Z,3.80
2018-08-28T07:48:38.851Z,4.33
2018-08-28T07:51:07.903Z,4.17
2018-08-28T07:53:36.926Z,3.80
2018-08-28T07:56:06.316Z,4.47
2018-08-28T07:58:35.396Z,4.35
2018-08-28T08:01:04.414Z,3.80
2018-08-28T08:03:33.457Z,4.22
2018-08-28T08:06:02.503Z,4.87
2018-08-28T08:08:31.502Z,4.22
2018-08-28T08:11:00.718Z,4.50
2018-08-28T08:13:29.729Z,4.62
2018-08-28T08:15:58.738Z,4.42
2018-08-28T08:18:27.768Z,4.60
2018-08-28T08:20:56.791Z,4.40
2018-08-28T08:23:25.841Z,4.78
2018-08-28T08:25:54.865Z,5.00
2018-08-28T08:28:23.901Z,4.95
2018-08-28T08:30:52.896Z,4.80
2018-08-28T08:33:21.888Z,4.87
2018-08-28T08:35:50.964Z,4.73
2018-08-28T08:38:19.981Z,4.70
2018-08-28T08:40:49.041Z,4.77
2018-08-28T08:43:18.144Z,4.97
2018-08-28T08:45:47.161Z,5.00
2018-08-28T08:48:16.238Z,4.70
2018-08-28T08:50:45.448Z,4.30
2018-08-28T08:53:14.512Z,4.50
2018-08-28T08:55:43.612Z,4.20
2018-08-28T08:58:12.660Z,4.07
2018-08-28T09:00:41.705Z,3.90
2018-08-28T09:03:10.730Z,4.40
2018-08-28T09:05:39.731Z,4.27
2018-08-28T09:08:08.897Z,4.23
2018-08-28T09:10:37.935Z,4.40
2018-08-28T09:13:06.933Z,3.90
2018-08-28T09:15:36.006Z,3.75
2018-08-28T09:18:05.184Z,5.42
2018-08-28T09:20:34.237Z,4.37
2018-08-28T09:23:03.544Z,4.10
2018-08-28T09:25:32.584Z,3.80
2018-08-28T09:28:01.614Z,3.87
2018-08-28T09:30:30.681Z,3.83
2018-08-28T09:32:59.721Z,4.03
2018-08-28T09:35:28.847Z,4.35
2018-08-28T09:37:57.800Z,3.92
2018-08-28T09:40:26.858Z,4.58
2018-08-28T09:42:55.844Z,4.78
2018-08-28T09:45:25.014Z,4.28
2018-08-28T09:47:53.999Z,3.58
2018-08-28T09:50:23.224Z,4.42
2018-08-28T09:52:52.048Z,4.53
2018-08-28T09:55:21.037Z,4.70
2018-08-28T09:57:50.077Z,4.20
2018-08-28T10:00:24.452Z,4.45
2018-08-28T10:02:53.526Z,4.28
2018-08-28T10:05:23.104Z,3.92
2018-08-28T10:07:52.209Z,4.10
2018-08-28T10:10:21.153Z,4.08
2018-08-28T10:12:50.247Z,4.00
2018-08-28T10:15:19.263Z,3.85
2018-08-28T10:17:48.255Z,3.95
2018-08-28T10:20:17.357Z,4.33
2018-08-28T10:22:46.395Z,4.35
2018-08-28T10:25:15.513Z,4.60
2018-08-28T10:27:44.519Z,4.75
2018-08-28T10:30:13.666Z,4.78
2018-08-28T10:32:42.650Z,4.17
2018-08-28T10:35:11.663Z,4.55
2018-08-28T10:37:40.711Z,5.00
2018-08-28T10:40:09.797Z,4.90
2018-08-28T10:42:38.849Z,5.00
2018-08-28T10:45:07.906Z,5.20
2018-08-28T10:47:36.928Z,4.95
2018-08-28T10:50:06.027Z,4.55
2018-08-28T10:52:35.134Z,5.30
2018-08-28T10:55:04.154Z,5.00
2018-08-28T10:57:33.201Z,4.87
2018-08-28T11:00:02.213Z,5.25
2018-08-28T11:02:31.280Z,5.15
2018-08-28T11:05:00.366Z,4.83
2018-08-28T11:07:29.421Z,5.28
2018-08-28T11:09:58.461Z,5.87
2018-08-28T11:12:27.487Z,4.95
2018-08-28T11:14:56.568Z,5.28
2018-08-28T11:17:25.681Z,5.00
2018-08-28T11:19:54.858Z,5.40
2018-08-28T11:22:23.964Z,4.90
2018-08-28T11:24:52.989Z,5.42
2018-08-28T11:27:22.016Z,5.45
2018-08-28T11:29:51.068Z,5.33
2018-08-28T11:32:20.073Z,5.53
2018-08-28T11:34:49.202Z,5.10
2018-08-28T11:37:18.213Z,5.65
2018-08-28T11:39:47.250Z,4.60
2018-08-28T11:42:16.300Z,5.22
2018-08-28T11:44:45.300Z,5.17
2018-08-28T11:47:14.669Z,4.75
2018-08-28T11:49:43.694Z,5.85
2018-08-28T11:52:12.874Z,5.47
2018-08-28T11:54:41.943Z,5.65
2018-08-28T11:57:10.955Z,5.72
2018-08-28T11:59:40.013Z,4.95
2018-08-28T12:02:09.263Z,4.75
2018-08-28T12:04:38.257Z,5.53
2018-08-28T12:07:07.973Z,5.75
2018-08-28T12:09:36.949Z,6.00
2018-08-28T12:12:05.989Z,5.40
2018-08-28T12:14:35.197Z,5.75
2018-08-28T12:17:04.272Z,6.22
2018-08-28T12:19:33.306Z,5.85
2018-08-28T12:22:02.354Z,5.60
2018-08-28T12:24:31.388Z,5.28
2018-08-28T12:27:00.398Z,5.67
2018-08-28T12:29:29.470Z,5.37
2018-08-28T12:31:58.493Z,5.22
2018-08-28T12:34:27.554Z,5.28
2018-08-28T12:36:56.672Z,5.45
2018-08-28T12:39:25.629Z,5.10
2018-08-28T12:41:54.775Z,4.70
2018-08-28T12:44:23.781Z,4.47
2018-08-28T12:46:52.831Z,4.58
2018-08-28T12:49:21.832Z,4.78
2018-08-28T12:51:50.906Z,4.72
2018-08-28T12:54:19.940Z,4.45
2018-08-28T12:56:48.951Z,4.45
2018-08-28T12:59:17.977Z,4.80
2018-08-28T13:01:46.986Z,4.92
2018-08-28T13:04:16.041Z,4.30
2018-08-28T13:06:45.070Z,4.60
2018-08-28T13:09:14.166Z,4.33
2018-08-28T13:11:43.213Z,4.35
2018-08-28T13:14:12.265Z,4.65
2018-08-28T13:16:41.488Z,4.33
2018-08-28T13:19:10.509Z,4.30
2018-08-28T13:21:39.542Z,4.58
2018-08-28T13:24:08.537Z,4.50
2018-08-28T13:26:38.437Z,4.10
2018-08-28T13:29:07.469Z,4.50
2018-08-28T13:31:36.460Z,4.33
2018-08-28T13:34:05.549Z,4.42
2018-08-28T13:36:34.614Z,4.10
2018-08-28T13:39:04.304Z,4.35
2018-08-28T13:41:33.394Z,3.75
2018-08-28T13:44:02.402Z,3.95
2018-08-28T13:46:31.543Z,4.20
2018-08-28T13:49:00.485Z,4.42
2018-08-28T13:51:29.561Z,4.20
2018-08-28T13:53:58.686Z,4.17
2018-08-28T13:56:27.686Z,4.50
2018-08-28T13:58:56.709Z,4.53
2018-08-28T14:01:25.764Z,4.25
2018-08-28T14:03:54.772Z,4.30
2018-08-28T14:06:23.837Z,4.83
2018-08-28T14:08:52.865Z,4.22
2018-08-28T14:11:21.907Z,4.37
2018-08-28T14:13:51.031Z,4.53
2018-08-28T14:16:19.936Z,3.95
2018-08-28T14:18:49.912Z,4.95
2018-08-28T14:21:18.981Z,3.98
2018-08-28T14:23:48.010Z,4.33
2018-08-28T14:26:17.042Z,4.80
2018-08-28T14:28:46.151Z,4.42
2018-08-28T14:31:15.144Z,4.70
2018-08-28T14:33:44.179Z,4.80
2018-08-28T14:36:13.253Z,4.47
2018-08-28T14:38:42.288Z,4.08
2018-08-28T14:41:11.475Z,4.72
2018-08-28T14:43:40.569Z,4.50
2018-08-28T14:46:09.710Z,4.05
2018-08-28T14:48:38.722Z,4.40
2018-08-28T14:51:08.084Z,4.33
2018-08-28T14:53:37.109Z,3.90
2018-08-28T14:56:06.254Z,4.37
2018-08-28T14:58:35.373Z,4.20
2018-08-28T15:01:04.381Z,3.87
2018-08-28T15:03:33.400Z,4.33
2018-08-28T15:06:02.497Z,4.35
2018-08-28T15:08:31.876Z,4.15
2018-08-28T15:11:03.796Z,4.47
2018-08-28T15:13:32.897Z,4.22
2018-08-28T15:16:01.889Z,4.22
2018-08-28T15:18:30.912Z,3.95
2018-08-28T15:20:59.958Z,4.30
2018-08-28T15:23:28.893Z,4.50
2018-08-28T15:25:57.917Z,4.33
2018-08-28T15:28:26.939Z,4.10
2018-08-28T15:30:55.969Z,4.50
2018-08-28T15:33:24.953Z,4.78
2018-08-28T15:35:53.940Z,4.30
2018-08-28T15:38:23.017Z,5.05
2018-08-28T15:40:51.986Z,3.95
2018-08-28T15:43:20.986Z,4.40
2018-08-28T15:45:50.036Z,4.78
2018-08-28T15:48:19.074Z,4.22
2018-08-28T15:50:48.081Z,4.60
2018-08-28T15:53:17.457Z,4.45
2018-08-28T15:55:46.433Z,4.30
2018-08-28T15:58:15.479Z,4.47
2018-08-28T16:00:44.614Z,4.92
2018-08-28T16:03:13.645Z,4.80
2018-08-28T16:05:43.085Z,4.42
2018-08-28T16:08:12.124Z,4.60
2018-08-28T16:10:41.165Z,4.70
2018-08-28T16:13:10.143Z,4.40
2018-08-28T16:15:39.445Z,4.40
2018-08-28T16:18:08.518Z,4.87
2018-08-28T16:20:37.484Z,4.22
2018-08-28T16:23:09.006Z,4.62
2018-08-28T16:25:37.990Z,4.28
2018-08-28T16:28:07.058Z,4.83
2018-08-28T16:30:36.048Z,4.42
2018-08-28T16:33:05.096Z,4.35
2018-08-28T16:35:34.105Z,4.42
2018-08-28T16:38:03.105Z,4.35
2018-08-28T16:40:32.174Z,4.67
2018-08-28T16:43:01.190Z,4.58
2018-08-28T16:45:30.189Z,4.95
2018-08-28T16:47:59.213Z,4.28
2018-08-28T16:50:28.205Z,4.85
2018-08-28T16:52:57.229Z,5.47
2018-08-28T16:55:26.238Z,5.17
2018-08-28T16:57:55.257Z,4.90
2018-08-28T17:00:24.245Z,5.12
2018-08-28T17:02:53.233Z,5.17
2018-08-28T17:05:22.260Z,4.92
2018-08-28T17:07:51.298Z,5.12
2018-08-28T17:10:20.318Z,4.53
2018-08-28T17:12:49.297Z,4.95
2018-08-28T17:15:18.356Z,4.75
2018-08-28T17:17:47.360Z,4.95
2018-08-28T17:20:16.432Z,4.90
2018-08-28T17:22:45.457Z,4.80
2018-08-28T17:25:14.572Z,4.77
2018-08-28T17:27:43.821Z,4.50
2018-08-28T17:30:12.865Z,4.70
2018-08-28T17:32:42.401Z,4.63
2018-08-28T17:35:11.411Z,4.78
2018-08-28T17:37:40.445Z,4.40
2018-08-28T17:40:09.449Z,5.27
2018-08-28T17:42:38.630Z,4.77
2018-08-28T17:45:07.617Z,4.43
2018-08-28T17:47:36.609Z,5.37
2018-08-28T17:50:06.378Z,4.30
2018-08-28T17:52:35.449Z,5.10
2018-08-28T17:55:04.625Z,4.30
2018-08-28T17:57:33.631Z,4.73
2018-08-28T18:00:02.675Z,4.57
2018-08-28T18:02:31.877Z,5.13
2018-08-28T18:05:00.888Z,5.27
2018-08-28T18:07:29.868Z,4.72
2018-08-28T18:09:59.105Z,4.97
2018-08-28T18:12:28.128Z,5.67
2018-08-28T18:14:57.097Z,4.97
2018-08-28T18:17:26.153Z,4.87
2018-08-28T18:19:55.446Z,4.83
2018-08-28T18:22:24.464Z,4.70
2018-08-28T18:24:53.461Z,4.60
2018-08-28T18:27:22.504Z,4.90
2018-08-28T18:29:51.490Z,4.80
2018-08-28T18:32:20.469Z,5.30
2018-08-28T18:34:49.542Z,4.70
2018-08-28T18:37:18.526Z,4.80
2018-08-28T18:39:47.573Z,4.97
2018-08-28T18:42:16.587Z,5.03
2018-08-28T18:44:45.683Z,4.80
2018-08-28T18:47:14.786Z,4.90
2018-08-28T18:49:43.834Z,5.00
2018-08-28T18:52:12.895Z,4.70
2018-08-28T18:54:41.914Z,4.57
2018-08-28T18:57:11.023Z,4.93
2018-08-28T18:59:40.005Z,4.43
2018-08-28T19:02:08.997Z,4.87
2018-08-28T19:04:38.032Z,5.13
2018-08-28T19:07:07.061Z,5.20
2018-08-28T19:09:36.098Z,5.03
2018-08-28T19:12:05.096Z,4.90
2018-08-28T19:14:34.155Z,5.03
2018-08-28T19:17:03.284Z,4.67
2018-08-28T19:19:32.317Z,4.77
2018-08-28T19:22:01.386Z,4.73
2018-08-28T19:24:30.400Z,5.47
2018-08-28T19:26:59.513Z,5.57
2018-08-28T19:29:28.554Z,5.20
2018-08-28T19:31:57.553Z,4.70
2018-08-28T19:34:26.564Z,5.70
2018-08-28T19:36:55.598Z,5.30
2018-08-28T19:39:24.608Z,5.13
2018-08-28T19:41:53.708Z,5.10
2018-08-28T19:44:22.751Z,5.90
2018-08-28T19:46:51.949Z,6.20
2018-08-28T19:49:21.215Z,5.73
2018-08-28T19:51:50.613Z,5.30
2018-08-28T19:54:19.923Z,5.53
2018-08-28T19:56:48.969Z,5.67
2018-08-28T19:59:17.969Z,5.60
2018-08-28T20:01:47.027Z,5.30
2018-08-28T20:04:16.024Z,5.63
2018-08-28T20:06:45.182Z,5.73
2018-08-28T20:09:14.191Z,5.50
2018-08-28T20:11:43.296Z,5.03
2018-08-28T20:14:12.305Z,4.80
2018-08-28T20:16:41.313Z,5.83
2018-08-28T20:19:10.592Z,5.90
2018-08-28T20:21:39.620Z,5.30
2018-08-28T20:24:08.670Z,5.70
2018-08-28T20:26:37.752Z,5.43
2018-08-28T20:29:06.749Z,5.93
2018-08-28T20:31:35.808Z,5.20
2018-08-28T20:34:04.885Z,5.30
2018-08-28T20:36:33.889Z,5.20
2018-08-28T20:39:02.997Z,5.67
2018-08-28T20:41:32.041Z,6.37
2018-08-28T20:44:01.096Z,5.63
2018-08-28T20:46:30.144Z,5.27
2018-08-28T20:48:59.173Z,6.10
2018-08-28T20:51:28.182Z,6.00
2018-08-28T20:53:57.181Z,5.40
2018-08-28T20:56:26.225Z,5.60
2018-08-28T20:58:55.896Z,5.93
2018-08-28T21:01:24.944Z,5.40
2018-08-28T21:03:53.948Z,5.20
2018-08-28T21:06:23.162Z,5.50
2018-08-28T21:08:52.145Z,5.80
2018-08-28T21:11:21.138Z,5.40
2018-08-28T21:13:50.182Z,5.40
2018-08-28T21:16:19.176Z,5.07
2018-08-28T21:18:51.753Z,5.50
2018-08-28T21:21:21.538Z,5.70
2018-08-28T21:23:50.568Z,5.30
2018-08-28T21:26:19.893Z,5.90
2018-08-28T21:28:48.899Z,5.53
2018-08-28T21:31:17.864Z,5.67
2018-08-28T21:33:46.910Z,6.13
2018-08-28T21:36:15.961Z,5.63
2018-08-28T21:38:45.178Z,6.03
2018-08-28T21:41:14.201Z,6.17
2018-08-28T21:43:43.595Z,5.53
2018-08-28T21:46:12.629Z,6.30
2018-08-28T21:48:41.667Z,5.97
2018-08-28T21:51:10.734Z,5.67
2018-08-28T21:53:39.747Z,5.97
2018-08-28T21:56:08.776Z,5.67
2018-08-28T21:58:37.785Z,6.10
2018-08-28T22:01:11.788Z,5.73
2018-08-28T22:03:42.174Z,5.70
2018-08-28T22:06:16.429Z,5.97
2018-08-28T22:08:45.734Z,6.97
2018-08-28T22:11:14.761Z,6.03
2018-08-28T22:13:43.885Z,5.90
2018-08-28T22:16:12.945Z,5.90
2018-08-28T22:18:42.014Z,5.93
2018-08-28T22:21:11.028Z,5.63
2018-08-28T22:23:40.061Z,6.10
2018-08-28T22:26:09.147Z,5.63
2018-08-28T22:28:38.160Z,6.23
2018-08-28T22:31:07.201Z,5.83
2018-08-28T22:33:36.216Z,6.40
2018-08-28T22:36:05.288Z,6.27
2018-08-28T22:38:34.364Z,6.90
2018-08-28T22:41:03.361Z,6.50
2018-08-28T22:43:32.373Z,6.50
2018-08-28T22:46:01.417Z,6.57
2018-08-28T22:48:30.441Z,6.53
2018-08-28T22:50:59.581Z,6.60
2018-08-28T22:53:28.624Z,6.37
2018-08-28T22:55:57.661Z,6.17
2018-08-28T22:58:26.696Z,6.37
2018-08-28T23:00:55.720Z,6.23
2018-08-28T23:03:25.021Z,6.40
2018-08-28T23:05:54.063Z,6.10
2018-08-28T23:08:23.074Z,6.10
2018-08-28T23:10:52.128Z,6.53
2018-08-28T23:13:21.136Z,5.60
2018-08-28T23:15:50.417Z,5.53
2018-08-28T23:18:19.441Z,5.83
2018-08-28T23:20:48.445Z,6.13
2018-08-28T23:23:17.497Z,6.33
2018-08-28T23:25:46.532Z,6.20
2018-08-28T23:28:15.585Z,6.43
2018-08-28T23:30:44.706Z,6.27
2018-08-28T23:33:14.053Z,6.23
2018-08-28T23:35:43.115Z,6.13
2018-08-28T23:38:12.156Z,6.70
2018-08-28T23:40:41.208Z,5.97
2018-08-28T23:43:10.217Z,6.47
2018-08-28T23:45:39.287Z,6.00
2018-08-28T23:48:08.304Z,6.83
2018-08-28T23:50:37.340Z,6.60
2018-08-28T23:53:06.389Z,6.43
2018-08-28T23:55:35.634Z,5.97
2018-08-28T23:58:04.749Z,6.63
